Iron Lady — WTK5059 — position and weather

sailwx.info

Track history (hours):
 
Tides and Currents Weather Stations Pressure Air Temp Water Temp Dewpoint Dewpoint Depression Visibility Wind Speed Wind Dir Waves Ship Positions

Iron Lady

Owner: IRON LADY INC, SOUTH BEND, WA. More information available from US FCC via Universal Licensing System and Coast Guard Vessel Documentation Center.

Last reported at 2015-May-23 12:33 UTC. Time now 2015-May-23 13:26 UTC.
Position N 46°10' W 123°55'.

Type: Fishing. MMSI: 367037240.

Date/timePositionNaut miles runAvg speedWind from/ knotsBaromVisibWave heightAir tempDewpointWater temp
2015-May-23 12:33N 46°10' W 123°55'0 0.0
2015-May-23 11:33N 46°10' W 123°55'0 0.0
2015-May-23 10:33N 46°10' W 123°55'0 0.0
2015-May-23 09:33N 46°10' W 123°55'0 0.0
2015-May-23 08:33N 46°10' W 123°55'0 0.0
2015-May-23 07:33N 46°10' W 123°55'0 0.0
2015-May-23 06:33N 46°10' W 123°55'0 0.0
2015-May-23 05:33N 46°10' W 123°55'0 0.0
2015-May-23 04:33N 46°10' W 123°55'0 0.0
2015-May-23 03:33N 46°10' W 123°55'0 0.0
2015-May-23 02:33N 46°10' W 123°55'0 0.0
2015-May-23 01:34N 46°10' W 123°55'0 0.0
2015-May-23 00:33N 46°10' W 123°55'0 0.0
2015-May-22 23:34N 46°10' W 123°55'0 0.0
2015-May-22 22:33N 46°10' W 123°55'0 0.0
2015-May-22 21:32N 46°10' W 123°55'0 0.0
2015-May-22 20:33N 46°10' W 123°55'0 0.0
2015-May-22 19:33N 46°10' W 123°55'0 0.0
2015-May-22 18:33N 46°10' W 123°55'0 0.0
2015-May-22 17:33N 46°10' W 123°55'0 0.0
2015-May-22 16:33N 46°10' W 123°55'0 0.0
2015-May-22 15:33N 46°10' W 123°55'0 0.0
2015-May-22 14:34N 46°10' W 123°55'0 0.0
2015-May-22 13:33N 46°10' W 123°55'0 0.0
2015-May-22 12:34N 46°10' W 123°55'0 0.0
2015-May-22 11:33N 46°10' W 123°55'0 0.0
2015-May-22 10:33N 46°10' W 123°55'0 0.0
2015-May-22 09:34N 46°10' W 123°55'0 0.0
2015-May-22 08:34N 46°10' W 123°55'0 0.0
2015-May-22 07:33N 46°10' W 123°55'0 0.0
2015-May-22 06:33N 46°10' W 123°55'0 0.0
2015-May-22 05:34N 46°10' W 123°55'0 0.0
2015-May-22 04:33N 46°10' W 123°55'0 0.0
2015-May-22 03:33N 46°10' W 123°55'0 0.0
2015-May-22 02:34N 46°10' W 123°55'0 0.0
2015-May-22 01:34N 46°10' W 123°55'0 0.0
2015-May-22 00:33N 46°10' W 123°55'0 0.0
2015-May-21 23:33N 46°10' W 123°55'0 0.0
2015-May-21 22:33N 46°10' W 123°55'0 0.0
2015-May-21 21:33N 46°10' W 123°55'0 0.0
2015-May-21 20:33N 46°10' W 123°55'0 0.0
2015-May-21 19:33N 46°10' W 123°55'0 0.0
2015-May-21 18:31N 46°10' W 123°55'0 0.0
2015-May-21 17:33N 46°10' W 123°55'1 1.1
2015-May-21 16:34N 46°11' W 123°54'2 2.0
2015-May-21 15:34N 46°11' W 123°51'0 0.0
2015-May-21 14:33N 46°11' W 123°51'0 0.0
2015-May-21 13:33N 46°11' W 123°51'0 0.0
2015-May-21 12:33N 46°11' W 123°51'0 0.0
2015-May-21 11:33N 46°11' W 123°51'2 1.6
2015-May-21 10:33N 46°11' W 123°54'9 8.9
2015-May-21 09:33N 46°15' W 124°06'8 7.9
2015-May-21 08:33N 46°21' W 124°12'8 7.6
2015-May-21 07:32N 46°28' W 124°19'8 7.9
2015-May-21 06:33N 46°34' W 124°25'8 8.1
2015-May-21 05:33N 46°41' W 124°31'8 8.4
2015-May-21 04:33N 46°48' W 124°38'7 7.0
2015-May-21 03:33N 46°54' W 124°44'2 1.7
2015-May-21 02:32N 46°52' W 124°43'2 1.9
2015-May-21 01:28N 46°50' W 124°43'1 0.6
2015-May-21 00:33N 46°51' W 124°43'3 2.2
2015-May-20 23:19N 46°53' W 124°44'1 1.2
2015-May-20 22:33N 46°54' W 124°44'4 2.0
2015-May-20 20:34N 46°50' W 124°43'2 1.7
2015-May-20 19:33N 46°52' W 124°42'2 2.2
2015-May-20 18:33N 46°54' W 124°43'1 0.7
2015-May-20 17:09N 46°53' W 124°44'1 2.1
2015-May-20 16:26N 46°52' W 124°43'2 2.1
2015-May-20 15:33N 46°50' W 124°43'2 1.7
2015-May-20 14:33N 46°51' W 124°45'4 2.5
2015-May-20 13:09N 46°55' W 124°45'5 1.7
2015-May-20 10:13N 46°59' W 124°48'1 0.9
2015-May-20 09:19N 47°00' W 124°48'2 0.4
2015-May-20 04:17N 47°01' W 124°46'3 0.7
2015-May-20 00:05N 46°59' W 124°42'3 1.4
2015-May-19 22:09N 46°57' W 124°40'3 0.2
2015-May-19 04:18N 46°59' W 124°44'1 0.1
2015-May-18 23:14N 46°59' W 124°43'1 2.2
2015-May-18 22:33N 46°60' W 124°44'3 0.3
2015-May-18 14:32N 47°01' W 124°47'6 1.8
2015-May-18 11:25N 46°55' W 124°47'1 0.8
2015-May-18 10:13N 46°56' W 124°47'11 6.3
2015-May-18 08:32N 46°48' W 124°38'8 7.7
2015-May-18 07:33N 46°41' W 124°32'7 6.9
2015-May-18 06:33N 46°35' W 124°26'7 7.0
2015-May-18 05:33N 46°29' W 124°21'7 7.4
2015-May-18 04:33N 46°23' W 124°15'8 8.3
2015-May-18 03:33N 46°16' W 124°08'9 9.0
2015-May-18 02:33N 46°12' W 123°56'3 3.5
2015-May-18 01:33N 46°11' W 123°51'3 2.6
2015-May-18 00:33N 46°10' W 123°55'0 0.0
2015-May-17 23:33N 46°10' W 123°55'0 0.0
2015-May-17 22:33N 46°10' W 123°55'0 0.0
2015-May-17 21:33N 46°10' W 123°55'0 0.0
2015-May-17 20:33N 46°10' W 123°55'0 0.0
2015-May-17 19:34N 46°10' W 123°55'0 0.0
2015-May-17 18:33N 46°10' W 123°55'0 0.0
2015-May-17 17:33N 46°10' W 123°55'0 0.0
2015-May-17 16:33N 46°10' W 123°55'0 0.0
2015-May-17 15:34N 46°10' W 123°55'0 0.0
2015-May-17 14:33N 46°10' W 123°55'0 0.0
2015-May-17 13:33N 46°10' W 123°55'0 0.0
2015-May-17 12:33N 46°10' W 123°55'0 0.0
2015-May-17 11:33N 46°10' W 123°55'0 0.0
2015-May-17 10:33N 46°10' W 123°55'0 0.0
2015-May-17 09:33N 46°10' W 123°55'0 0.0
2015-May-17 08:33N 46°10' W 123°55'0 0.0
2015-May-17 07:34N 46°10' W 123°55'0 0.0
2015-May-17 06:34N 46°10' W 123°55'0 0.0
2015-May-17 05:33N 46°10' W 123°55'0 0.0
2015-May-17 04:33N 46°10' W 123°55'0 0.0
2015-May-17 03:33N 46°10' W 123°55'0 0.0
2015-May-17 02:34N 46°10' W 123°55'0 0.0
2015-May-17 01:34N 46°10' W 123°55'0 0.0
2015-May-17 00:33N 46°10' W 123°55'0 0.0
2015-May-16 23:33N 46°10' W 123°55'0 0.0
2015-May-16 22:33N 46°10' W 123°55'0 0.0
2015-May-16 21:33N 46°10' W 123°55'0 0.0
2015-May-16 20:33N 46°10' W 123°55'0 0.0
2015-May-16 19:33N 46°10' W 123°55'0 0.0
2015-May-16 18:33N 46°10' W 123°55'0 0.0
2015-May-16 17:33N 46°10' W 123°55'0 0.0
2015-May-16 16:33N 46°10' W 123°55'0 0.0
2015-May-16 15:33N 46°10' W 123°55'0 0.0
2015-May-16 14:33N 46°10' W 123°55'0 0.0
2015-May-16 13:33N 46°10' W 123°55'0 0.0
2015-May-16 12:33N 46°10' W 123°55'0 0.0
2015-May-16 11:33N 46°10' W 123°55'0 0.0
2015-May-16 10:33N 46°10' W 123°55'0 0.0
2015-May-16 09:33N 46°10' W 123°55'0 0.0
2015-May-16 08:33N 46°10' W 123°55'0 0.0
2015-May-16 07:33N 46°10' W 123°55'0 0.0
2015-May-16 06:33N 46°10' W 123°55'0 0.0
2015-May-16 05:33N 46°10' W 123°55'0 0.0
2015-May-16 04:33N 46°10' W 123°55'0 0.0
2015-May-16 03:33N 46°10' W 123°55'0 0.0
2015-May-16 02:33N 46°10' W 123°55'0 0.0
2015-May-16 01:33N 46°10' W 123°55'0 0.0
2015-May-16 00:33N 46°10' W 123°55'0 0.0
2015-May-15 23:33N 46°10' W 123°55'0 0.0
2015-May-15 22:33N 46°10' W 123°55'0 0.0
2015-May-15 21:34N 46°10' W 123°55'0 0.0
2015-May-15 20:33N 46°10' W 123°55'0 0.0
2015-May-15 19:33N 46°10' W 123°55'0 0.0
2015-May-15 18:33N 46°10' W 123°55'0 0.0
2015-May-15 17:33N 46°10' W 123°55'0 0.0
2015-May-15 16:33N 46°10' W 123°55'0 0.0
2015-May-15 15:33N 46°10' W 123°55'0 0.0
2015-May-15 14:33N 46°10' W 123°55'0 0.0
2015-May-15 13:33N 46°10' W 123°55'0 0.0
2015-May-15 12:33N 46°10' W 123°55'0 0.0
2015-May-15 11:33N 46°10' W 123°55'0 0.0
2015-May-15 10:33N 46°10' W 123°55'0 0.0
2015-May-15 09:33N 46°10' W 123°55'0 0.0
2015-May-15 08:33N 46°10' W 123°55'0 0.0
2015-May-15 07:33N 46°10' W 123°55'0 0.0
2015-May-15 06:33N 46°10' W 123°55'0 0.0
2015-May-15 05:33N 46°10' W 123°55'0 0.0
2015-May-15 04:33N 46°10' W 123°55'0 0.0
2015-May-15 03:33N 46°10' W 123°55'0 0.0
2015-May-15 02:33N 46°10' W 123°55'0 0.0
2015-May-15 01:33N 46°10' W 123°55'0 0.0
2015-May-15 00:33N 46°10' W 123°55'0 0.0
2015-May-14 23:33N 46°10' W 123°55'2 2.1
2015-May-14 22:33N 46°11' W 123°52'1 0.6
2015-May-14 21:33N 46°11' W 123°51'0 0.0
2015-May-14 20:33N 46°11' W 123°51'0 0.0
2015-May-14 19:33N 46°11' W 123°51'0 0.0
2015-May-14 18:33N 46°11' W 123°51'0 0.2
2015-May-14 17:33N 46°11' W 123°52'0 0.0
2015-May-14 16:33N 46°11' W 123°52'1 1.0
2015-May-14 15:33N 46°12' W 123°50'3 3.0
2015-May-14 14:33N 46°12' W 123°55'8 7.9
2015-May-14 13:33N 46°15' W 124°05'7 7.4
2015-May-14 12:33N 46°20' W 124°12'1 0.8
2015-May-14 11:33N 46°21' W 124°13'1 0.6
2015-May-14 10:33N 46°22' W 124°13'0 0.2
2015-May-14 09:33N 46°22' W 124°13'7 7.2
2015-May-14 08:33N 46°28' W 124°19'8 8.2
2015-May-14 07:33N 46°35' W 124°25'8 8.0
2015-May-14 06:33N 46°41' W 124°31'9 8.2
2015-May-14 05:30N 46°48' W 124°39'8 8.0
2015-May-14 04:32N 46°55' W 124°45'7 3.0
2015-May-14 02:15N 47°01' W 124°50'2 2.3
2015-May-14 01:09N 46°59' W 124°48'3 0.3
2015-May-13 13:13N 46°58' W 124°43'  
Track history (hours):
 
Tides and Currents Weather Stations Pressure Air Temp Water Temp Dewpoint Dewpoint Depression Visibility Wind Speed Wind Dir Waves Ship Positions

Iron Lady

Owner: IRON LADY INC, SOUTH BEND, WA. More information available from US FCC via Universal Licensing System and Coast Guard Vessel Documentation Center.

Last reported at 2015-May-23 12:33 UTC. Time now 2015-May-23 13:26 UTC.
Position N 46°10' W 123°55'.

Type: Fishing. MMSI: 367037240.

Date/timePositionNaut miles runAvg speedWind from/ knotsBaromVisibWave heightAir tempDewpointWater temp
2015-May-23 12:33N 46°10' W 123°55'0 0.0
2015-May-23 11:33N 46°10' W 123°55'0 0.0
2015-May-23 10:33N 46°10' W 123°55'0 0.0
2015-May-23 09:33N 46°10' W 123°55'0 0.0
2015-May-23 08:33N 46°10' W 123°55'0 0.0
2015-May-23 07:33N 46°10' W 123°55'0 0.0
2015-May-23 06:33N 46°10' W 123°55'0 0.0
2015-May-23 05:33N 46°10' W 123°55'0 0.0
2015-May-23 04:33N 46°10' W 123°55'0 0.0
2015-May-23 03:33N 46°10' W 123°55'0 0.0
2015-May-23 02:33N 46°10' W 123°55'0 0.0
2015-May-23 01:34N 46°10' W 123°55'0 0.0
2015-May-23 00:33N 46°10' W 123°55'0 0.0
2015-May-22 23:34N 46°10' W 123°55'0 0.0
2015-May-22 22:33N 46°10' W 123°55'0 0.0
2015-May-22 21:32N 46°10' W 123°55'0 0.0
2015-May-22 20:33N 46°10' W 123°55'0 0.0
2015-May-22 19:33N 46°10' W 123°55'0 0.0
2015-May-22 18:33N 46°10' W 123°55'0 0.0
2015-May-22 17:33N 46°10' W 123°55'0 0.0
2015-May-22 16:33N 46°10' W 123°55'0 0.0
2015-May-22 15:33N 46°10' W 123°55'0 0.0
2015-May-22 14:34N 46°10' W 123°55'0 0.0
2015-May-22 13:33N 46°10' W 123°55'0 0.0
2015-May-22 12:34N 46°10' W 123°55'0 0.0
2015-May-22 11:33N 46°10' W 123°55'0 0.0
2015-May-22 10:33N 46°10' W 123°55'0 0.0
2015-May-22 09:34N 46°10' W 123°55'0 0.0
2015-May-22 08:34N 46°10' W 123°55'0 0.0
2015-May-22 07:33N 46°10' W 123°55'0 0.0
2015-May-22 06:33N 46°10' W 123°55'0 0.0
2015-May-22 05:34N 46°10' W 123°55'0 0.0
2015-May-22 04:33N 46°10' W 123°55'0 0.0
2015-May-22 03:33N 46°10' W 123°55'0 0.0
2015-May-22 02:34N 46°10' W 123°55'0 0.0
2015-May-22 01:34N 46°10' W 123°55'0 0.0
2015-May-22 00:33N 46°10' W 123°55'0 0.0
2015-May-21 23:33N 46°10' W 123°55'0 0.0
2015-May-21 22:33N 46°10' W 123°55'0 0.0
2015-May-21 21:33N 46°10' W 123°55'0 0.0
2015-May-21 20:33N 46°10' W 123°55'0 0.0
2015-May-21 19:33N 46°10' W 123°55'0 0.0
2015-May-21 18:31N 46°10' W 123°55'0 0.0
2015-May-21 17:33N 46°10' W 123°55'1 1.1
2015-May-21 16:34N 46°11' W 123°54'2 2.0
2015-May-21 15:34N 46°11' W 123°51'0 0.0
2015-May-21 14:33N 46°11' W 123°51'0 0.0
2015-May-21 13:33N 46°11' W 123°51'0 0.0
2015-May-21 12:33N 46°11' W 123°51'0 0.0
2015-May-21 11:33N 46°11' W 123°51'2 1.6
2015-May-21 10:33N 46°11' W 123°54'9 8.9
2015-May-21 09:33N 46°15' W 124°06'8 7.9
2015-May-21 08:33N 46°21' W 124°12'8 7.6
2015-May-21 07:32N 46°28' W 124°19'8 7.9
2015-May-21 06:33N 46°34' W 124°25'8 8.1
2015-May-21 05:33N 46°41' W 124°31'8 8.4
2015-May-21 04:33N 46°48' W 124°38'7 7.0
2015-May-21 03:33N 46°54' W 124°44'2 1.7
2015-May-21 02:32N 46°52' W 124°43'2 1.9
2015-May-21 01:28N 46°50' W 124°43'1 0.6
2015-May-21 00:33N 46°51' W 124°43'3 2.2
2015-May-20 23:19N 46°53' W 124°44'1 1.2
2015-May-20 22:33N 46°54' W 124°44'4 2.0
2015-May-20 20:34N 46°50' W 124°43'2 1.7
2015-May-20 19:33N 46°52' W 124°42'2 2.2
2015-May-20 18:33N 46°54' W 124°43'1 0.7
2015-May-20 17:09N 46°53' W 124°44'1 2.1
2015-May-20 16:26N 46°52' W 124°43'2 2.1
2015-May-20 15:33N 46°50' W 124°43'2 1.7
2015-May-20 14:33N 46°51' W 124°45'4 2.5
2015-May-20 13:09N 46°55' W 124°45'5 1.7
2015-May-20 10:13N 46°59' W 124°48'1 0.9
2015-May-20 09:19N 47°00' W 124°48'2 0.4
2015-May-20 04:17N 47°01' W 124°46'3 0.7
2015-May-20 00:05N 46°59' W 124°42'3 1.4
2015-May-19 22:09N 46°57' W 124°40'3 0.2
2015-May-19 04:18N 46°59' W 124°44'1 0.1
2015-May-18 23:14N 46°59' W 124°43'1 2.2
2015-May-18 22:33N 46°60' W 124°44'3 0.3
2015-May-18 14:32N 47°01' W 124°47'6 1.8
2015-May-18 11:25N 46°55' W 124°47'1 0.8
2015-May-18 10:13N 46°56' W 124°47'11 6.3
2015-May-18 08:32N 46°48' W 124°38'8 7.7
2015-May-18 07:33N 46°41' W 124°32'7 6.9
2015-May-18 06:33N 46°35' W 124°26'7 7.0
2015-May-18 05:33N 46°29' W 124°21'7 7.4
2015-May-18 04:33N 46°23' W 124°15'8 8.3
2015-May-18 03:33N 46°16' W 124°08'9 9.0
2015-May-18 02:33N 46°12' W 123°56'3 3.5
2015-May-18 01:33N 46°11' W 123°51'3 2.6
2015-May-18 00:33N 46°10' W 123°55'0 0.0
2015-May-17 23:33N 46°10' W 123°55'0 0.0
2015-May-17 22:33N 46°10' W 123°55'0 0.0
2015-May-17 21:33N 46°10' W 123°55'0 0.0
2015-May-17 20:33N 46°10' W 123°55'0 0.0
2015-May-17 19:34N 46°10' W 123°55'0 0.0
2015-May-17 18:33N 46°10' W 123°55'0 0.0
2015-May-17 17:33N 46°10' W 123°55'0 0.0
2015-May-17 16:33N 46°10' W 123°55'0 0.0
2015-May-17 15:34N 46°10' W 123°55'0 0.0
2015-May-17 14:33N 46°10' W 123°55'0 0.0
2015-May-17 13:33N 46°10' W 123°55'0 0.0
2015-May-17 12:33N 46°10' W 123°55'0 0.0
2015-May-17 11:33N 46°10' W 123°55'0 0.0
2015-May-17 10:33N 46°10' W 123°55'0 0.0
2015-May-17 09:33N 46°10' W 123°55'0 0.0
2015-May-17 08:33N 46°10' W 123°55'0 0.0
2015-May-17 07:34N 46°10' W 123°55'0 0.0
2015-May-17 06:34N 46°10' W 123°55'0 0.0
2015-May-17 05:33N 46°10' W 123°55'0 0.0
2015-May-17 04:33N 46°10' W 123°55'0 0.0
2015-May-17 03:33N 46°10' W 123°55'0 0.0
2015-May-17 02:34N 46°10' W 123°55'0 0.0
2015-May-17 01:34N 46°10' W 123°55'0 0.0
2015-May-17 00:33N 46°10' W 123°55'0 0.0
2015-May-16 23:33N 46°10' W 123°55'0 0.0
2015-May-16 22:33N 46°10' W 123°55'0 0.0
2015-May-16 21:33N 46°10' W 123°55'0 0.0
2015-May-16 20:33N 46°10' W 123°55'0 0.0
2015-May-16 19:33N 46°10' W 123°55'0 0.0
2015-May-16 18:33N 46°10' W 123°55'0 0.0
2015-May-16 17:33N 46°10' W 123°55'0 0.0
2015-May-16 16:33N 46°10' W 123°55'0 0.0
2015-May-16 15:33N 46°10' W 123°55'0 0.0
2015-May-16 14:33N 46°10' W 123°55'0 0.0
2015-May-16 13:33N 46°10' W 123°55'0 0.0
2015-May-16 12:33N 46°10' W 123°55'0 0.0
2015-May-16 11:33N 46°10' W 123°55'0 0.0
2015-May-16 10:33N 46°10' W 123°55'0 0.0
2015-May-16 09:33N 46°10' W 123°55'0 0.0
2015-May-16 08:33N 46°10' W 123°55'0 0.0
2015-May-16 07:33N 46°10' W 123°55'0 0.0
2015-May-16 06:33N 46°10' W 123°55'0 0.0
2015-May-16 05:33N 46°10' W 123°55'0 0.0
2015-May-16 04:33N 46°10' W 123°55'0 0.0
2015-May-16 03:33N 46°10' W 123°55'0 0.0
2015-May-16 02:33N 46°10' W 123°55'0 0.0
2015-May-16 01:33N 46°10' W 123°55'0 0.0
2015-May-16 00:33N 46°10' W 123°55'0 0.0
2015-May-15 23:33N 46°10' W 123°55'0 0.0
2015-May-15 22:33N 46°10' W 123°55'0 0.0
2015-May-15 21:34N 46°10' W 123°55'0 0.0
2015-May-15 20:33N 46°10' W 123°55'0 0.0
2015-May-15 19:33N 46°10' W 123°55'0 0.0
2015-May-15 18:33N 46°10' W 123°55'0 0.0
2015-May-15 17:33N 46°10' W 123°55'0 0.0
2015-May-15 16:33N 46°10' W 123°55'0 0.0
2015-May-15 15:33N 46°10' W 123°55'0 0.0
2015-May-15 14:33N 46°10' W 123°55'0 0.0
2015-May-15 13:33N 46°10' W 123°55'0 0.0
2015-May-15 12:33N 46°10' W 123°55'0 0.0
2015-May-15 11:33N 46°10' W 123°55'0 0.0
2015-May-15 10:33N 46°10' W 123°55'0 0.0
2015-May-15 09:33N 46°10' W 123°55'0 0.0
2015-May-15 08:33N 46°10' W 123°55'0 0.0
2015-May-15 07:33N 46°10' W 123°55'0 0.0
2015-May-15 06:33N 46°10' W 123°55'0 0.0
2015-May-15 05:33N 46°10' W 123°55'0 0.0
2015-May-15 04:33N 46°10' W 123°55'0 0.0
2015-May-15 03:33N 46°10' W 123°55'0 0.0
2015-May-15 02:33N 46°10' W 123°55'0 0.0
2015-May-15 01:33N 46°10' W 123°55'0 0.0
2015-May-15 00:33N 46°10' W 123°55'0 0.0
2015-May-14 23:33N 46°10' W 123°55'2 2.1
2015-May-14 22:33N 46°11' W 123°52'1 0.6
2015-May-14 21:33N 46°11' W 123°51'0 0.0
2015-May-14 20:33N 46°11' W 123°51'0 0.0
2015-May-14 19:33N 46°11' W 123°51'0 0.0
2015-May-14 18:33N 46°11' W 123°51'0 0.2
2015-May-14 17:33N 46°11' W 123°52'0 0.0
2015-May-14 16:33N 46°11' W 123°52'1 1.0
2015-May-14 15:33N 46°12' W 123°50'3 3.0
2015-May-14 14:33N 46°12' W 123°55'8 7.9
2015-May-14 13:33N 46°15' W 124°05'7 7.4
2015-May-14 12:33N 46°20' W 124°12'1 0.8
2015-May-14 11:33N 46°21' W 124°13'1 0.6
2015-May-14 10:33N 46°22' W 124°13'0 0.2
2015-May-14 09:33N 46°22' W 124°13'7 7.2
2015-May-14 08:33N 46°28' W 124°19'8 8.2
2015-May-14 07:33N 46°35' W 124°25'8 8.0
2015-May-14 06:33N 46°41' W 124°31'9 8.2
2015-May-14 05:30N 46°48' W 124°39'8 8.0
2015-May-14 04:32N 46°55' W 124°45'7 3.0
2015-May-14 02:15N 47°01' W 124°50'2 2.3
2015-May-14 01:09N 46°59' W 124°48'3 0.3
2015-May-13 13:13N 46°58' W 124°43'  

Dump ship's entire track history